Time;durP1;ratioP1;P1;durP2;ratioP2;P2;SDS_P1;SDS_P2;PMS_P1;PMS_P2;Temp;Humidity;BMP_temperature;BMP_pressure;BME280_temperature;BME280_humidity;BME280_pressure;Samples;Min_cycle;Max_cycle;Signal;HPM_P1;HPM_P2
2021/03/29 00:00:59;;;;;;;10.73;5.40;;;10.70;54.50;;;;;;5000266;28;20435;-76
2021/03/29 00:03:25;;;;;;;13.90;4.50;;;10.70;54.40;;;;;;4988724;28;20182;-76
2021/03/29 00:05:50;;;;;;;8.77;5.53;;;10.70;54.30;;;;;;5004450;28;20430;-75
2021/03/29 00:08:21;;;;;;;12.97;6.73;;;10.70;54.10;;;;;;5011857;28;20206;-75
2021/03/29 00:10:49;;;;;;;11.80;5.67;;;10.80;54.10;;;;;;5013337;28;20164;-75
2021/03/29 00:13:16;;;;;;;16.30;6.47;;;10.80;53.90;;;;;;4995332;28;20411;-75
2021/03/29 00:15:45;;;;;;;12.53;7.57;;;10.80;53.80;;;;;;4993127;28;20429;-74
2021/03/29 00:18:11;;;;;;;13.03;5.87;;;10.80;53.70;;;;;;4993886;28;20411;-75
2021/03/29 00:20:41;;;;;;;12.00;5.70;;;10.80;53.80;;;;;;4994190;28;20407;-74
2021/03/29 00:23:08;;;;;;;15.97;6.27;;;10.80;53.80;;;;;;4995644;28;20415;-75
2021/03/29 00:25:35;;;;;;;12.57;6.40;;;10.80;53.80;;;;;;5004356;28;20439;-74
2021/03/29 00:28:01;;;;;;;13.60;5.50;;;10.80;53.90;;;;;;5007657;28;20451;-74
2021/03/29 00:30:30;;;;;;;22.80;7.07;;;10.80;53.90;;;;;;5003038;28;20438;-74
2021/03/29 00:32:56;;;;;;;12.07;5.60;;;10.80;53.90;;;;;;5003122;28;20438;-74
2021/03/29 00:35:24;;;;;;;15.43;5.83;;;10.80;53.90;;;;;;5001800;28;20407;-76
2021/03/29 00:37:53;;;;;;;12.03;5.53;;;10.80;53.90;;;;;;5000334;28;20860;-75
2021/03/29 00:40:20;;;;;;;17.67;6.03;;;10.80;53.90;;;;;;4983975;28;20423;-74
2021/03/29 00:42:50;;;;;;;8.17;5.57;;;10.70;53.90;;;;;;4993583;28;20923;-74
2021/03/29 00:45:18;;;;;;;12.70;5.37;;;10.70;53.90;;;;;;4997741;28;20442;-74
2021/03/29 00:47:45;;;;;;;11.10;5.57;;;10.70;54.00;;;;;;4995798;28;20455;-75
2021/03/29 00:50:21;;;;;;;12.80;5.93;;;10.70;54.10;;;;;;4981917;28;20463;-75
2021/03/29 00:52:49;;;;;;;12.20;6.00;;;10.60;54.10;;;;;;4976143;28;20416;-75
2021/03/29 00:55:15;;;;;;;17.27;6.90;;;10.60;54.20;;;;;;4977950;28;20790;-75
2021/03/29 00:57:43;;;;;;;15.93;5.10;;;10.60;54.20;;;;;;4995274;28;20938;-75
2021/03/29 01:00:18;;;;;;;14.70;5.57;;;10.60;54.30;;;;;;4996087;28;20918;-75
2021/03/29 01:02:44;;;;;;;14.30;6.20;;;10.50;54.40;;;;;;4996528;28;20414;-75
2021/03/29 01:05:14;;;;;;;14.50;6.70;;;10.50;54.50;;;;;;4995956;28;20407;-75
2021/03/29 01:07:40;;;;;;;19.60;6.77;;;10.40;54.70;;;;;;4995235;28;20481;-76
2021/03/29 01:10:06;;;;;;;14.70;5.80;;;10.40;54.70;;;;;;5010847;23;20597;-73
2021/03/29 01:12:33;;;;;;;12.90;5.10;;;10.30;54.70;;;;;;5016715;28;20473;-75
2021/03/29 01:14:59;;;;;;;9.33;4.93;;;10.30;55.50;;;;;;5006685;28;20500;-73
2021/03/29 01:17:30;;;;;;;14.13;5.53;;;10.20;55.00;;;;;;5024090;28;20448;-74
2021/03/29 01:20:01;;;;;;;11.03;5.27;;;10.20;55.10;;;;;;5014950;28;20434;-74
2021/03/29 01:22:42;;;;;;;13.73;5.47;;;10.10;55.20;;;;;;4996070;28;20413;-75
2021/03/29 01:25:13;;;;;;;17.40;6.70;;;10.10;55.30;;;;;;5003023;28;20423;-73
2021/03/29 01:27:48;;;;;;;15.40;5.77;;;10.10;55.50;;;;;;5008502;28;20453;-73
2021/03/29 01:30:14;;;;;;;20.27;5.50;;;10.00;55.50;;;;;;5004760;28;20438;-73
2021/03/29 01:32:44;;;;;;;14.83;5.10;;;10.00;55.60;;;;;;4999555;28;20419;-74
2021/03/29 01:35:23;;;;;;;8.67;4.53;;;10.00;55.60;;;;;;5013360;28;20406;-73
2021/03/29 01:37:49;;;;;;;15.73;4.90;;;9.90;56.50;;;;;;5012625;28;20804;-73
2021/03/29 01:40:17;;;;;;;12.60;6.00;;;9.90;56.60;;;;;;5004150;28;20492;-74
2021/03/29 01:42:45;;;;;;;12.27;5.63;;;9.90;56.70;;;;;;5014447;28;20503;-73
2021/03/29 01:45:12;;;;;;;11.50;5.20;;;9.80;56.60;;;;;;5003766;28;20422;-74
2021/03/29 01:47:39;;;;;;;14.63;5.83;;;9.80;56.70;;;;;;5013087;28;20536;-74
2021/03/29 01:50:07;;;;;;;9.37;4.20;;;9.80;56.80;;;;;;5009380;28;20530;-74
2021/03/29 01:52:33;;;;;;;15.43;6.00;;;9.80;56.90;;;;;;4994848;28;20933;-73
2021/03/29 01:55:00;;;;;;;8.53;5.40;;;9.80;56.90;;;;;;5001191;28;20426;-74
2021/03/29 01:57:26;;;;;;;13.60;6.40;;;9.70;56.90;;;;;;5014282;28;20229;-74
2021/03/29 01:59:52;;;;;;;18.50;4.90;;;9.70;56.90;;;;;;5014172;28;20453;-74
2021/03/29 02:02:18;;;;;;;11.67;4.77;;;9.80;57.00;;;;;;5013549;28;20574;-74
2021/03/29 02:04:45;;;;;;;7.57;4.00;;;9.70;56.90;;;;;;5029260;28;20454;-73
2021/03/29 02:07:11;;;;;;;12.23;4.97;;;9.70;56.90;;;;;;5010262;28;20511;-73
2021/03/29 02:09:38;;;;;;;13.23;5.50;;;9.70;57.00;;;;;;4999178;28;20438;-74
2021/03/29 02:12:07;;;;;;;9.90;4.10;;;9.70;57.00;;;;;;5011644;28;20438;-74
2021/03/29 02:14:35;;;;;;;12.17;5.10;;;9.60;57.10;;;;;;5013447;28;20414;-74
2021/03/29 02:17:03;;;;;;;14.13;5.07;;;9.60;57.20;;;;;;5011911;28;20498;-73
2021/03/29 02:19:30;;;;;;;11.10;5.60;;;9.60;57.30;;;;;;5012217;28;21037;-74
2021/03/29 02:21:57;;;;;;;19.97;5.40;;;9.60;57.30;;;;;;5012569;28;20426;-73
2021/03/29 02:24:25;;;;;;;9.77;4.60;;;9.60;57.30;;;;;;5011863;28;20418;-73
2021/03/29 02:26:52;;;;;;;12.60;5.23;;;9.60;57.40;;;;;;5012046;28;20442;-73
2021/03/29 02:29:26;;;;;;;12.73;5.33;;;9.50;57.50;;;;;;5008779;28;20454;-74
2021/03/29 02:31:54;;;;;;;15.47;4.93;;;9.50;57.60;;;;;;5000789;28;20404;-74
2021/03/29 02:34:20;;;;;;;15.80;5.17;;;9.50;57.70;;;;;;4997554;28;20923;-74
2021/03/29 02:36:46;;;;;;;10.37;4.90;;;9.40;57.90;;;;;;5013505;28;20414;-73
2021/03/29 02:39:12;;;;;;;9.27;5.43;;;9.40;58.10;;;;;;5010970;28;20421;-73
2021/03/29 02:41:39;;;;;;;13.67;5.40;;;9.40;58.30;;;;;;5013346;28;20172;-74
2021/03/29 02:44:06;;;;;;;19.50;5.27;;;9.30;58.40;;;;;;4995811;28;20565;-73
2021/03/29 02:46:32;;;;;;;10.20;4.80;;;9.20;58.60;;;;;;5012466;28;20942;-74
2021/03/29 02:49:05;;;;;;;17.30;4.87;;;9.20;58.80;;;;;;5012805;28;20927;-73
2021/03/29 02:51:33;;;;;;;10.77;5.30;;;9.20;58.90;;;;;;4995595;28;20402;-73
2021/03/29 02:54:02;;;;;;;9.07;5.10;;;9.10;59.00;;;;;;4998465;28;20437;-74
2021/03/29 02:56:34;;;;;;;18.33;6.30;;;9.10;59.20;;;;;;4998203;28;20418;-73
2021/03/29 02:59:07;;;;;;;13.77;5.67;;;9.10;59.30;;;;;;5003743;28;20403;-75
2021/03/29 03:01:37;;;;;;;12.20;5.60;;;9.00;59.30;;;;;;5001569;28;20509;-73
2021/03/29 03:04:03;;;;;;;10.23;5.70;;;9.00;59.40;;;;;;4997354;28;20891;-74
2021/03/29 03:06:31;;;;;;;8.50;4.77;;;9.00;59.40;;;;;;5013034;28;20954;-74
2021/03/29 03:09:00;;;;;;;13.30;6.50;;;9.00;59.50;;;;;;5010371;28;20454;-73
2021/03/29 03:11:26;;;;;;;12.10;5.23;;;9.00;59.50;;;;;;5011413;28;20811;-75
2021/03/29 03:13:53;;;;;;;14.87;5.60;;;8.90;59.50;;;;;;4996533;28;20873;-74
2021/03/29 03:16:19;;;;;;;11.03;4.80;;;8.90;59.50;;;;;;4993497;28;20422;-74
2021/03/29 03:18:48;;;;;;;12.97;6.07;;;8.90;59.60;;;;;;4993398;28;20411;-74
2021/03/29 03:21:18;;;;;;;13.20;5.60;;;8.90;59.70;;;;;;5002509;28;20233;-73
2021/03/29 03:23:55;;;;;;;13.33;5.13;;;8.90;59.70;;;;;;5002680;28;20422;-74
2021/03/29 03:26:22;;;;;;;14.67;6.17;;;8.90;59.70;;;;;;5012924;28;20929;-74
2021/03/29 03:28:48;;;;;;;16.50;4.70;;;8.90;59.70;;;;;;5011932;28;20449;-74
2021/03/29 03:31:14;;;;;;;13.17;5.67;;;8.90;59.70;;;;;;4996467;28;20446;-74
2021/03/29 03:33:40;;;;;;;15.50;5.50;;;8.80;59.70;;;;;;5013486;28;20417;-74
2021/03/29 03:36:06;;;;;;;8.40;6.20;;;8.80;59.70;;;;;;5013511;28;20163;-75
2021/03/29 03:38:38;;;;;;;11.70;4.97;;;8.80;59.80;;;;;;5013296;28;20179;-73
2021/03/29 03:41:08;;;;;;;10.07;4.87;;;8.80;59.80;;;;;;5000927;28;20447;-74
2021/03/29 03:43:37;;;;;;;11.07;4.70;;;8.80;59.80;;;;;;5001300;28;20411;-75
2021/03/29 03:46:14;;;;;;;12.80;5.53;;;8.80;59.70;;;;;;5011273;28;20417;-74
2021/03/29 03:48:41;;;;;;;14.23;5.70;;;8.80;59.60;;;;;;5013842;28;20536;-74
2021/03/29 03:51:08;;;;;;;12.20;6.40;;;8.80;59.50;;;;;;5011254;28;20442;-74
2021/03/29 03:53:35;;;;;;;19.97;5.03;;;8.80;59.50;;;;;;5011596;28;20433;-74
2021/03/29 03:56:01;;;;;;;10.10;4.57;;;8.80;59.40;;;;;;5008699;28;20476;-74
2021/03/29 03:58:29;;;;;;;22.60;5.43;;;8.90;59.40;;;;;;5012571;28;20444;-74
2021/03/29 04:00:58;;;;;;;10.13;6.40;;;8.90;59.30;;;;;;5011528;28;20473;-74
2021/03/29 04:03:25;;;;;;;13.07;4.77;;;8.90;59.20;;;;;;5012477;28;20476;-75
2021/03/29 04:05:51;;;;;;;12.73;4.87;;;8.90;59.10;;;;;;5012591;28;20426;-77
2021/03/29 04:08:17;;;;;;;9.10;4.57;;;8.90;59.10;;;;;;5012248;28;20469;-76
2021/03/29 04:10:49;;;;;;;12.07;5.60;;;8.90;59.10;;;;;;4982572;28;20321;-77
2021/03/29 04:13:22;;;;;;;14.50;4.20;;;8.90;59.10;;;;;;4993805;28;20418;-76
2021/03/29 04:15:48;;;;;;;10.50;5.17;;;8.90;59.20;;;;;;4993395;28;20399;-78
2021/03/29 04:18:13;;;;;;;12.63;6.03;;;8.80;59.10;;;;;;5011413;28;20664;-77
2021/03/29 04:20:39;;;;;;;15.83;5.07;;;8.90;59.20;;;;;;5022147;28;20239;-76
2021/03/29 04:23:04;;;;;;;14.80;6.00;;;8.90;59.30;;;;;;5018754;28;20175;-76
2021/03/29 04:25:30;;;;;;;15.13;4.90;;;8.80;59.20;;;;;;5018036;28;20179;-77
2021/03/29 04:27:56;;;;;;;13.80;5.67;;;8.80;59.30;;;;;;5014455;28;20690;-76
2021/03/29 04:30:23;;;;;;;13.07;5.70;;;8.80;59.40;;;;;;5010702;28;20445;-79
2021/03/29 04:32:49;;;;;;;11.60;4.27;;;8.80;59.40;;;;;;5009970;28;20175;-77
2021/03/29 04:35:16;;;;;;;10.83;5.50;;;8.80;59.40;;;;;;4992277;28;20449;-76
2021/03/29 04:37:42;;;;;;;14.10;5.77;;;8.80;59.40;;;;;;4991311;28;20419;-77
2021/03/29 04:40:09;;;;;;;8.53;4.97;;;8.70;59.40;;;;;;4991419;28;20434;-79
2021/03/29 04:42:35;;;;;;;16.47;5.53;;;8.70;59.40;;;;;;4991134;28;20936;-78
2021/03/29 04:45:00;;;;;;;9.07;5.30;;;8.70;59.50;;;;;;5004643;28;20422;-76
2021/03/29 04:47:26;;;;;;;11.00;4.80;;;8.70;59.50;;;;;;5010632;28;20452;-77
2021/03/29 04:49:52;;;;;;;14.33;5.10;;;8.70;59.60;;;;;;5014118;28;20747;-78
2021/03/29 04:52:17;;;;;;;15.07;5.80;;;8.70;59.60;;;;;;5015644;28;20173;-78
2021/03/29 04:54:43;;;;;;;12.33;5.13;;;8.70;59.70;;;;;;5011214;28;20163;-77
2021/03/29 04:57:09;;;;;;;16.93;5.10;;;8.70;59.70;;;;;;5006812;28;20269;-77
2021/03/29 04:59:34;;;;;;;11.17;4.83;;;8.70;59.70;;;;;;4991450;28;20214;-76
2021/03/29 05:02:00;;;;;;;18.90;6.60;;;8.60;59.60;;;;;;4969793;28;20287;-75
2021/03/29 05:04:26;;;;;;;7.67;5.20;;;8.70;59.80;;;;;;4954102;28;20172;-75
2021/03/29 05:06:51;;;;;;;17.70;5.40;;;8.60;59.90;;;;;;4971471;28;20222;-74
2021/03/29 05:09:17;;;;;;;10.53;3.93;;;8.60;59.90;;;;;;4971023;28;20284;-73
2021/03/29 05:11:50;;;;;;;11.83;5.20;;;8.60;60.00;;;;;;4973628;28;20403;-74
2021/03/29 05:14:16;;;;;;;13.57;5.50;;;8.60;60.00;;;;;;4990254;28;20247;-73
2021/03/29 05:16:43;;;;;;;13.73;5.30;;;8.60;60.10;;;;;;4988703;28;20492;-77
2021/03/29 05:19:10;;;;;;;9.03;6.13;;;8.60;60.10;;;;;;4987014;28;20422;-76
2021/03/29 05:21:36;;;;;;;14.90;4.90;;;8.60;60.30;;;;;;4971683;28;20506;-76
2021/03/29 05:24:03;;;;;;;13.33;5.80;;;8.60;60.30;;;;;;4976433;28;20501;-78
2021/03/29 05:26:29;;;;;;;16.03;5.10;;;8.60;60.40;;;;;;4976355;28;20426;-77
2021/03/29 05:28:54;;;;;;;13.87;5.77;;;8.60;61.30;;;;;;4993757;28;20459;-76
2021/03/29 05:31:20;;;;;;;16.60;5.57;;;8.60;60.60;;;;;;4994560;28;20750;-75
2021/03/29 05:33:46;;;;;;;7.80;5.20;;;8.60;60.50;;;;;;4990548;28;20569;-78
2021/03/29 05:36:13;;;;;;;7.60;4.10;;;8.60;60.40;;;;;;4996803;28;20259;-76
2021/03/29 05:38:43;;;;;;;12.03;5.33;;;8.60;60.30;;;;;;4984825;28;20434;-71
2021/03/29 05:41:10;;;;;;;13.10;5.37;;;8.70;60.40;;;;;;4986321;28;20482;-70
2021/03/29 05:43:40;;;;;;;16.50;5.20;;;8.70;60.10;;;;;;4979703;28;20487;-70
2021/03/29 05:46:06;;;;;;;12.70;5.30;;;8.80;60.00;;;;;;4978269;28;20863;-72
2021/03/29 05:48:32;;;;;;;15.70;5.67;;;8.80;59.90;;;;;;4993309;28;20608;-70
2021/03/29 05:51:00;;;;;;;12.33;5.27;;;8.80;59.70;;;;;;4967818;28;20303;-73
2021/03/29 05:53:26;;;;;;;15.53;5.00;;;8.90;59.70;;;;;;4994587;28;20873;-72
2021/03/29 05:55:52;;;;;;;11.53;4.93;;;8.90;59.50;;;;;;4973531;28;20470;-72
2021/03/29 06:00:46;;;;;;;7.77;4.10;;;9.00;59.20;;;;;;4987679;28;20695;-70
2021/03/29 06:03:23;;;;;;;11.53;5.50;;;9.10;59.10;;;;;;4993637;28;20419;-72
2021/03/29 06:05:51;;;;;;;12.50;4.80;;;9.10;58.80;;;;;;4992775;28;20179;-72
2021/03/29 06:08:17;;;;;;;10.13;4.60;;;9.20;58.80;;;;;;4991827;28;20501;-71
2021/03/29 06:10:44;;;;;;;10.83;4.53;;;9.30;58.70;;;;;;4986954;28;20572;-73
2021/03/29 06:13:18;;;;;;;16.20;4.70;;;9.30;58.60;;;;;;4993220;28;20417;-72
2021/03/29 06:15:45;;;;;;;14.80;5.30;;;9.40;58.60;;;;;;4984364;28;20769;-72
2021/03/29 06:18:13;;;;;;;9.10;4.30;;;9.40;58.40;;;;;;4992874;28;20422;-72
2021/03/29 06:21:11;;;;;;;16.80;4.90;;;9.50;58.40;;;;;;4975267;28;20449;-73
2021/03/29 06:23:41;;;;;;;13.30;5.40;;;9.60;58.30;;;;;;4980859;28;20423;-73
2021/03/29 06:26:24;;;;;;;9.27;4.80;;;9.60;58.00;;;;;;4975170;28;20425;-74
2021/03/29 06:28:51;;;;;;;9.57;4.33;;;9.70;57.90;;;;;;4991985;28;20458;-72
2021/03/29 06:31:31;;;;;;;15.53;5.27;;;9.70;57.70;;;;;;4973568;28;20456;-72
2021/03/29 06:33:59;;;;;;;9.40;4.83;;;9.80;57.50;;;;;;4976080;28;20407;-74
2021/03/29 06:36:35;;;;;;;11.43;4.10;;;9.90;57.40;;;;;;4973529;28;20416;-73
2021/03/29 06:39:18;;;;;;;8.40;4.67;;;9.90;57.20;;;;;;4977564;28;20412;-74
2021/03/29 06:41:54;;;;;;;10.47;4.37;;;10.00;56.30;;;;;;4984815;28;20424;-73
2021/03/29 06:44:35;;;;;;;8.63;4.70;;;10.10;56.20;;;;;;4974813;28;20407;-73
2021/03/29 06:47:08;;;;;;;14.63;5.27;;;10.10;56.10;;;;;;4973402;28;20925;-74
2021/03/29 06:49:45;;;;;;;10.50;5.27;;;10.20;55.80;;;;;;4955736;28;20599;-75
2021/03/29 06:52:27;;;;;;;11.43;5.20;;;10.30;55.70;;;;;;4986002;28;20430;-75
2021/03/29 06:54:54;;;;;;;9.70;5.40;;;10.40;55.60;;;;;;4983971;28;20425;-75
2021/03/29 06:57:31;;;;;;;10.47;4.60;;;10.40;55.30;;;;;;4970207;28;20426;-74
2021/03/29 06:59:58;;;;;;;7.53;4.70;;;10.60;55.20;;;;;;4990073;28;20443;-74
2021/03/29 07:02:38;;;;;;;10.87;4.20;;;10.70;55.00;;;;;;4990589;28;20451;-74
2021/03/29 07:05:05;;;;;;;16.77;4.73;;;10.70;54.60;;;;;;4991881;28;20510;-75
2021/03/29 07:07:31;;;;;;;11.33;4.30;;;10.80;54.40;;;;;;4990117;28;20451;-72
2021/03/29 07:09:58;;;;;;;15.70;5.80;;;10.90;54.40;;;;;;4999880;28;20788;-74
2021/03/29 07:12:31;;;;;;;11.50;4.80;;;11.00;54.10;;;;;;5008632;28;20959;-75
2021/03/29 07:14:59;;;;;;;16.40;5.13;;;11.10;53.80;;;;;;5001467;28;21346;-74
2021/03/29 07:17:27;;;;;;;9.33;5.10;;;11.20;53.80;;;;;;4990163;28;20478;-74
2021/03/29 07:19:54;;;;;;;13.33;4.30;;;11.30;53.50;;;;;;4990776;28;20517;-76
2021/03/29 07:22:20;;;;;;;10.63;4.77;;;11.40;53.30;;;;;;4997662;28;20422;-73
2021/03/29 07:24:46;;;;;;;10.50;3.97;;;11.50;52.90;;;;;;5000593;28;20470;-74
2021/03/29 07:27:15;;;;;;;15.50;4.50;;;11.60;52.80;;;;;;5001667;28;20477;-74
2021/03/29 07:29:47;;;;;;;17.00;5.80;;;11.70;52.70;;;;;;4991569;28;20250;-73
2021/03/29 07:32:31;;;;;;;10.17;4.50;;;11.80;52.20;;;;;;5007167;28;20411;-74
2021/03/29 07:34:58;;;;;;;11.60;4.37;;;12.00;52.20;;;;;;4994704;28;20422;-76
2021/03/29 07:37:47;;;;;;;8.87;4.73;;;12.90;51.90;;;;;;4993299;28;20414;-74
2021/03/29 07:40:19;;;;;;;10.47;5.07;;;14.60;49.80;;;;;;4984201;28;20564;-74
2021/03/29 07:42:46;;;;;;;9.03;4.00;;;16.80;46.60;;;;;;4996341;28;20446;-75
2021/03/29 07:45:15;;;;;;;9.20;4.93;;;18.30;43.50;;;;;;5010875;28;20481;-77
2021/03/29 07:47:45;;;;;;;9.90;5.13;;;19.50;40.90;;;;;;5011304;28;20453;-75
2021/03/29 07:50:25;;;;;;;10.10;4.67;;;20.40;39.30;;;;;;5012645;28;20517;-77
2021/03/29 07:52:56;;;;;;;12.27;4.47;;;20.80;38.00;;;;;;4974756;28;20563;-80
2021/03/29 07:55:24;;;;;;;10.27;4.83;;;20.80;36.60;;;;;;5011852;28;20413;-77
2021/03/29 07:57:50;;;;;;;8.60;4.17;;;20.70;36.50;;;;;;4978075;28;20473;-72
2021/03/29 08:00:25;;;;;;;11.50;5.07;;;20.60;36.40;;;;;;4992163;28;20442;-75
2021/03/29 08:02:59;;;;;;;12.60;4.13;;;20.00;36.40;;;;;;4992683;28;20188;-74
2021/03/29 08:05:43;;;;;;;12.10;5.83;;;19.60;37.70;;;;;;5012576;28;20430;-76
2021/03/29 08:08:25;;;;;;;10.03;4.60;;;20.30;37.60;;;;;;4976312;28;20455;-72
2021/03/29 08:11:02;;;;;;;8.73;4.50;;;21.70;36.20;;;;;;5009499;28;21091;-72
2021/03/29 08:13:50;;;;;;;9.40;4.67;;;22.80;34.70;;;;;;5007846;28;20779;-74
2021/03/29 08:16:29;;;;;;;6.43;4.30;;;23.60;33.00;;;;;;5012607;28;20452;-72
2021/03/29 08:19:18;;;;;;;7.60;4.00;;;23.90;32.60;;;;;;5008936;28;20495;-72
2021/03/29 08:22:02;;;;;;;9.73;4.10;;;24.20;31.80;;;;;;5005956;28;20556;-72
2021/03/29 08:24:40;;;;;;;5.07;3.60;;;24.10;31.50;;;;;;5004748;28;20485;-72
2021/03/29 08:27:27;;;;;;;11.53;4.50;;;24.10;31.40;;;;;;5010360;28;20433;-72
2021/03/29 08:29:54;;;;;;;13.93;4.57;;;24.30;31.80;;;;;;5009587;28;20839;-75
2021/03/29 08:32:30;;;;;;;9.37;3.90;;;24.90;30.90;;;;;;5003774;28;20410;-73
2021/03/29 08:35:08;;;;;;;7.23;4.20;;;25.40;29.80;;;;;;4996202;28;20418;-73
2021/03/29 08:37:40;;;;;;;7.70;4.00;;;25.70;29.80;;;;;;4995145;28;20407;-73
2021/03/29 08:40:20;;;;;;;8.90;3.37;;;26.00;29.30;;;;;;4995998;28;20503;-73
2021/03/29 08:42:47;;;;;;;7.80;4.40;;;26.30;29.00;;;;;;4996925;28;20434;-73
2021/03/29 08:45:16;;;;;;;7.93;3.97;;;26.60;28.70;;;;;;4974801;28;20473;-72
2021/03/29 08:47:44;;;;;;;12.53;4.90;;;26.70;28.50;;;;;;4992017;28;20753;-73
2021/03/29 08:50:15;;;;;;;9.07;4.00;;;26.80;28.10;;;;;;4990808;28;20500;-73
2021/03/29 08:52:42;;;;;;;14.17;4.90;;;26.60;28.20;;;;;;4989974;28;20534;-73
2021/03/29 08:55:09;;;;;;;11.03;6.20;;;26.90;28.20;;;;;;4993274;28;20781;-73
2021/03/29 08:57:35;;;;;;;9.27;5.20;;;27.00;27.50;;;;;;5004626;28;20414;-74
2021/03/29 09:00:10;;;;;;;10.70;4.63;;;27.00;27.80;;;;;;5014326;28;20440;-73
2021/03/29 09:02:36;;;;;;;16.80;4.70;;;27.10;27.60;;;;;;4996559;28;20459;-74
2021/03/29 09:05:05;;;;;;;7.33;4.57;;;27.20;27.60;;;;;;5015662;28;20456;-73
2021/03/29 09:07:35;;;;;;;10.63;3.90;;;27.20;27.50;;;;;;4996917;28;20237;-73
2021/03/29 09:10:12;;;;;;;12.30;5.80;;;27.30;27.70;;;;;;5012049;28;20457;-73
2021/03/29 09:12:38;;;;;;;17.47;4.80;;;27.40;27.60;;;;;;4998548;28;20426;-74
2021/03/29 09:15:12;;;;;;;9.37;4.63;;;27.60;27.60;;;;;;4995982;28;20417;-74
2021/03/29 09:17:38;;;;;;;14.57;6.33;;;27.60;27.60;;;;;;4994508;28;20595;-73
2021/03/29 09:20:05;;;;;;;13.80;6.60;;;27.90;27.20;;;;;;4996760;28;20429;-75
2021/03/29 09:22:35;;;;;;;11.17;4.67;;;28.00;26.70;;;;;;4996055;28;20171;-72
2021/03/29 09:25:02;;;;;;;7.30;3.60;;;28.20;26.60;;;;;;5015809;28;20775;-74
2021/03/29 09:27:37;;;;;;;7.10;2.40;;;28.40;25.30;;;;;;4978534;28;20531;-75
2021/03/29 09:30:12;;;;;;;8.30;2.10;;;28.70;24.30;;;;;;5012309;28;20506;-74
2021/03/29 09:32:43;;;;;;;5.97;2.37;;;28.60;22.60;;;;;;5000238;28;20422;-75
2021/03/29 09:35:09;;;;;;;4.63;2.00;;;28.60;22.00;;;;;;4996257;28;20749;-74
2021/03/29 09:37:44;;;;;;;3.90;1.80;;;28.40;21.90;;;;;;4995823;28;20414;-76
2021/03/29 09:40:10;;;;;;;5.77;2.90;;;28.30;21.70;;;;;;4995603;28;20450;-75
2021/03/29 09:42:53;;;;;;;4.83;2.40;;;28.50;21.70;;;;;;4994880;28;20480;-73
2021/03/29 09:45:27;;;;;;;7.33;2.97;;;28.80;20.70;;;;;;4997247;28;20178;-76
2021/03/29 09:48:09;;;;;;;10.73;2.37;;;28.90;21.20;;;;;;5002090;28;20425;-76
2021/03/29 09:50:37;;;;;;;2.93;2.07;;;28.60;19.70;;;;;;4988518;28;20413;-72
2021/03/29 09:53:18;;;;;;;11.20;2.40;;;28.40;19.00;;;;;;4977879;28;20419;-73
2021/03/29 09:55:56;;;;;;;3.63;2.33;;;28.00;19.40;;;;;;4994745;28;20418;-73
2021/03/29 09:58:30;;;;;;;7.10;2.87;;;27.40;19.90;;;;;;4977828;28;20446;-74
2021/03/29 10:00:59;;;;;;;6.57;1.53;;;27.30;19.50;;;;;;5002663;28;20456;-73
2021/03/29 10:03:26;;;;;;;6.10;2.57;;;27.50;19.50;;;;;;5004936;28;21026;-71
2021/03/29 10:05:53;;;;;;;5.37;1.87;;;27.50;19.10;;;;;;5022856;28;20445;-73
2021/03/29 10:08:26;;;;;;;11.33;2.57;;;27.70;18.80;;;;;;5001509;28;20938;-74
2021/03/29 10:11:00;;;;;;;5.47;1.70;;;27.60;18.90;;;;;;4977027;28;20474;-72
2021/03/29 10:14:03;;;;;;;5.37;2.40;;;27.80;18.60;;;;;;4993781;28;20426;-73
2021/03/29 10:16:29;;;;;;;7.07;2.10;;;27.90;19.10;;;;;;4982347;28;20410;-73
2021/03/29 10:19:06;;;;;;;6.90;1.50;;;27.70;19.10;;;;;;5012538;28;20432;-72
2021/03/29 10:22:14;;;;;;;7.20;4.77;;;27.70;19.10;;;;;;5013452;28;20171;-72
2021/03/29 10:24:59;;;;;;;3.80;1.60;;;27.90;18.80;;;;;;4993660;28;20437;-73
2021/03/29 10:27:36;;;;;;;9.10;3.20;;;27.90;18.30;;;;;;5000826;28;20470;-73
2021/03/29 10:30:03;;;;;;;8.33;2.33;;;27.70;18.70;;;;;;5008750;28;20953;-74
2021/03/29 10:32:29;;;;;;;13.23;2.57;;;27.80;19.50;;;;;;5013928;28;20410;-73
2021/03/29 10:34:55;;;;;;;5.37;2.20;;;27.80;20.80;;;;;;5001709;28;20429;-73
2021/03/29 10:37:26;;;;;;;10.67;3.27;;;27.40;18.40;;;;;;4993143;28;20179;-74
2021/03/29 10:39:53;;;;;;;4.43;1.77;;;27.00;19.00;;;;;;5008980;28;20564;-75
2021/03/29 10:42:21;;;;;;;10.53;2.30;;;26.20;19.40;;;;;;5008962;28;20495;-72
2021/03/29 10:44:47;;;;;;;5.60;2.07;;;25.50;20.70;;;;;;4993274;28;20819;-75
2021/03/29 10:47:13;;;;;;;4.23;2.10;;;24.90;21.20;;;;;;5012256;28;20425;-73
2021/03/29 10:49:40;;;;;;;8.87;2.87;;;24.20;20.10;;;;;;5012638;28;20430;-75
2021/03/29 10:52:06;;;;;;;9.00;2.13;;;23.50;20.80;;;;;;5000575;28;20513;-75
2021/03/29 10:54:35;;;;;;;4.17;1.30;;;23.20;20.80;;;;;;4993574;28;20832;-78
2021/03/29 10:57:01;;;;;;;9.23;2.23;;;22.90;20.50;;;;;;5009124;28;20426;-72
2021/03/29 10:59:27;;;;;;;4.47;1.40;;;22.60;20.10;;;;;;5012388;28;20465;-73
2021/03/29 11:01:53;;;;;;;5.17;1.60;;;22.30;20.40;;;;;;4996041;28;20440;-73
2021/03/29 11:04:19;;;;;;;5.80;2.00;;;21.90;20.20;;;;;;4996075;28;20167;-74
2021/03/29 11:06:44;;;;;;;2.73;1.30;;;21.90;22.70;;;;;;4992727;28;20175;-74
2021/03/29 11:09:10;;;;;;;6.70;1.93;;;21.80;23.60;;;;;;5004259;28;20243;-75
2021/03/29 11:11:36;;;;;;;11.60;2.33;;;21.90;21.40;;;;;;4991941;28;20205;-73
2021/03/29 11:14:02;;;;;;;5.13;1.60;;;21.80;21.00;;;;;;5002484;28;20655;-72
2021/03/29 11:16:28;;;;;;;7.33;1.77;;;21.70;20.40;;;;;;5009313;28;20408;-75
2021/03/29 11:18:54;;;;;;;6.07;1.80;;;21.60;20.10;;;;;;5007582;28;20511;-73
2021/03/29 11:21:20;;;;;;;3.13;1.50;;;21.60;19.90;;;;;;5007361;28;20205;-73
2021/03/29 11:23:46;;;;;;;9.10;2.70;;;21.60;20.20;;;;;;5007783;28;20264;-75
2021/03/29 11:26:12;;;;;;;5.90;1.93;;;21.70;20.20;;;;;;4997078;28;20451;-74
2021/03/29 11:28:37;;;;;;;4.00;1.70;;;21.70;20.50;;;;;;5011263;28;20200;-74
2021/03/29 11:31:03;;;;;;;5.93;2.10;;;21.60;20.00;;;;;;5011020;28;20503;-75
2021/03/29 11:33:29;;;;;;;4.97;1.60;;;21.50;19.90;;;;;;4994973;28;20230;-75
2021/03/29 11:35:55;;;;;;;4.80;1.87;;;21.60;20.00;;;;;;4992434;28;20420;-73
2021/03/29 11:38:21;;;;;;;5.50;2.43;;;21.60;19.10;;;;;;4994852;28;20713;-74
2021/03/29 11:40:47;;;;;;;6.47;1.90;;;21.60;19.70;;;;;;5010587;28;20260;-74
2021/03/29 11:43:13;;;;;;;14.73;2.50;;;21.70;20.10;;;;;;5009798;28;20218;-73
2021/03/29 11:45:39;;;;;;;21.60;4.00;;;21.80;20.70;;;;;;5011480;28;20421;-73
2021/03/29 11:48:05;;;;;;;8.30;1.70;;;21.80;20.20;;;;;;4993907;28;21033;-73
2021/03/29 11:50:31;;;;;;;8.17;2.30;;;21.80;20.10;;;;;;5009991;28;20714;-74
2021/03/29 11:52:57;;;;;;;3.83;2.30;;;21.80;20.50;;;;;;5005478;28;20419;-72
2021/03/29 11:55:23;;;;;;;7.13;2.57;;;21.70;19.40;;;;;;4984457;28;20734;-72
2021/03/29 11:57:49;;;;;;;14.90;2.93;;;21.60;19.00;;;;;;5008586;28;20172;-73
2021/03/29 12:03:16;;;;;;;6.07;2.23;;;21.60;21.80;;;;;;4996664;28;20433;-73
2021/03/29 12:05:47;;;;;;;7.77;2.07;;;21.50;20.40;;;;;;5010484;28;21583;-72
2021/03/29 12:08:34;;;;;;;5.90;2.00;;;21.50;20.20;;;;;;5009618;28;20451;-72
2021/03/29 12:13:46;;;;;;;6.47;3.57;;;21.60;20.20;;;;;;4980304;28;20431;-73
2021/03/29 12:16:13;;;;;;;8.27;3.00;;;21.60;21.50;;;;;;4992903;28;20411;-74
2021/03/29 12:18:43;;;;;;;5.43;1.90;;;21.50;21.40;;;;;;5011582;28;20176;-74
2021/03/29 12:21:15;;;;;;;4.63;2.17;;;21.50;20.80;;;;;;5012394;28;20470;-74
2021/03/29 12:23:44;;;;;;;6.00;2.00;;;21.60;21.20;;;;;;5010263;28;20432;-72
2021/03/29 12:26:12;;;;;;;7.27;1.80;;;21.60;19.90;;;;;;5008977;28;20516;-75
2021/03/29 12:28:43;;;;;;;3.40;1.70;;;21.60;20.00;;;;;;5010246;28;20534;-73
2021/03/29 12:31:09;;;;;;;7.23;1.60;;;21.60;19.60;;;;;;5016829;28;20507;-75
2021/03/29 12:33:35;;;;;;;4.90;1.77;;;21.60;20.10;;;;;;5014380;28;20524;-74
2021/03/29 12:36:01;;;;;;;8.60;2.13;;;21.60;19.90;;;;;;5013874;28;20440;-74
2021/03/29 12:38:31;;;;;;;6.60;1.93;;;21.50;19.60;;;;;;5012987;28;20414;-74
2021/03/29 12:40:59;;;;;;;6.80;2.20;;;21.50;19.70;;;;;;5004954;28;20441;-74
2021/03/29 12:43:43;;;;;;;9.33;2.50;;;21.50;19.80;;;;;;5006844;28;20439;-73
2021/03/29 12:46:10;;;;;;;9.57;2.40;;;21.40;19.60;;;;;;5007718;28;20451;-74
2021/03/29 12:48:40;;;;;;;5.63;2.60;;;21.50;20.30;;;;;;4986374;28;20553;-74
2021/03/29 12:51:06;;;;;;;10.53;2.13;;;21.60;20.50;;;;;;4982010;28;20529;-73
2021/03/29 12:53:33;;;;;;;5.33;1.70;;;21.60;21.10;;;;;;5012069;28;20521;-72
2021/03/29 12:56:00;;;;;;;3.53;1.57;;;21.70;20.20;;;;;;5010070;28;20791;-74
2021/03/29 12:58:26;;;;;;;8.67;2.27;;;21.70;20.80;;;;;;5014220;28;20516;-73
2021/03/29 13:00:54;;;;;;;10.53;2.40;;;21.70;20.90;;;;;;5015491;28;20451;-73
2021/03/29 13:03:21;;;;;;;3.37;2.23;;;21.60;20.10;;;;;;5012725;28;20904;-74
2021/03/29 13:05:56;;;;;;;4.10;1.87;;;21.50;20.40;;;;;;5014399;28;20926;-72